Time;durP1;ratioP1;P1;durP2;ratioP2;P2;SDS_P1;SDS_P2;PMS_P1;PMS_P2;Temp;Humidity;BMP_temperature;BMP_pressure;BME280_temperature;BME280_humidity;BME280_pressure;Samples;Min_cycle;Max_cycle;Signal;HPM_P1;HPM_P2
2023/10/14 00:02:01;;;;;;;5.60;3.57;;;;;;;;;;5054972;28;20190;-76
2023/10/14 00:04:36;;;;;;;6.65;3.50;;;;;;;;;;5055092;28;20460;-76
2023/10/14 00:07:08;;;;;;;7.05;3.10;;;;;;;;;;5054758;28;20244;-76
2023/10/14 00:09:42;;;;;;;7.63;3.47;;;;;;;;;;5054991;28;20183;-76
2023/10/14 00:12:14;;;;;;;5.55;2.90;;;;;;;;;;5054632;28;20702;-76
2023/10/14 00:14:43;;;;;;;7.00;3.70;;;;;;;;;;5072874;28;20186;-76
2023/10/14 00:17:16;;;;;;;7.07;3.08;;;;;;;;;;5074692;28;20581;-76
2023/10/14 00:19:46;;;;;;;8.40;3.72;;;;;;;;;;5074472;28;20217;-81
2023/10/14 00:22:13;;;;;;;6.90;3.10;;;;;;;;;;5074604;28;20186;-76
2023/10/14 00:24:42;;;;;;;6.47;3.50;;;;;;;;;;5074601;28;20436;-75
2023/10/14 00:27:11;;;;;;;10.30;3.80;;;;;;;;;;5074023;28;20285;-77
2023/10/14 00:29:41;;;;;;;5.10;3.17;;;;;;;;;;5073887;28;20197;-80
2023/10/14 00:32:08;;;;;;;8.57;3.55;;;;;;;;;;5074290;28;20209;-76
2023/10/14 00:34:37;;;;;;;6.37;3.40;;;;;;;;;;5074047;28;20688;-76
2023/10/14 00:37:08;;;;;;;12.23;4.07;;;;;;;;;;5073364;28;20918;-76
2023/10/14 00:39:37;;;;;;;7.90;3.95;;;;;;;;;;5074062;28;20217;-76
2023/10/14 00:42:08;;;;;;;7.80;3.85;;;;;;;;;;5073430;28;20260;-76
2023/10/14 00:44:40;;;;;;;8.15;4.13;;;;;;;;;;5073872;28;20693;-76
2023/10/14 00:47:15;;;;;;;9.55;3.72;;;;;;;;;;5073048;28;20194;-76
2023/10/14 00:49:43;;;;;;;6.72;3.33;;;;;;;;;;5073872;28;20186;-76
2023/10/14 00:52:18;;;;;;;5.70;3.42;;;;;;;;;;5073942;28;20251;-76
2023/10/14 00:54:58;;;;;;;8.00;3.80;;;;;;;;;;5074061;28;20178;-76
2023/10/14 00:57:37;;;;;;;7.72;3.50;;;;;;;;;;5073573;28;20189;-76
2023/10/14 01:00:22;;;;;;;4.90;3.05;;;;;;;;;;5074049;28;20264;-75
2023/10/14 01:02:52;;;;;;;6.45;3.72;;;;;;;;;;5073595;28;20192;-76
2023/10/14 01:05:21;;;;;;;6.15;3.28;;;;;;;;;;5073474;28;20186;-76
2023/10/14 01:07:49;;;;;;;9.27;3.40;;;;;;;;;;5072191;28;20229;-76
2023/10/14 01:10:25;;;;;;;7.28;3.15;;;;;;;;;;5073194;28;20225;-76
2023/10/14 01:12:55;;;;;;;7.40;4.00;;;;;;;;;;5073872;28;20210;-76
2023/10/14 01:15:30;;;;;;;9.10;3.73;;;;;;;;;;5073586;28;20433;-76
2023/10/14 01:17:59;;;;;;;9.13;3.90;;;;;;;;;;5073347;28;20911;-76
2023/10/14 01:20:37;;;;;;;6.10;3.60;;;;;;;;;;5073297;28;20224;-76
2023/10/14 01:23:12;;;;;;;4.28;2.83;;;;;;;;;;5073132;28;20523;-76
2023/10/14 01:25:46;;;;;;;9.15;3.40;;;;;;;;;;5073579;28;20181;-76
2023/10/14 01:28:20;;;;;;;7.22;3.67;;;;;;;;;;5073218;28;20596;-77
2023/10/14 01:30:56;;;;;;;6.22;4.13;;;;;;;;;;5073085;28;20174;-76
2023/10/14 01:33:25;;;;;;;5.80;2.97;;;;;;;;;;5073456;28;20213;-77
2023/10/14 01:35:53;;;;;;;7.53;3.20;;;;;;;;;;5071996;28;20447;-76
2023/10/14 01:38:23;;;;;;;9.60;3.20;;;;;;;;;;5073085;28;20475;-76
2023/10/14 01:40:52;;;;;;;11.50;3.57;;;;;;;;;;5073062;28;20504;-76
2023/10/14 01:43:24;;;;;;;8.27;3.77;;;;;;;;;;5072992;28;20437;-76
2023/10/14 01:46:00;;;;;;;11.67;3.63;;;;;;;;;;5073011;28;20427;-76
2023/10/14 01:48:31;;;;;;;5.70;3.58;;;;;;;;;;5072902;28;20499;-76
2023/10/14 01:50:59;;;;;;;8.53;3.90;;;;;;;;;;5072480;28;20190;-76
2023/10/14 01:53:31;;;;;;;5.73;3.43;;;;;;;;;;5073164;28;20472;-76
2023/10/14 01:56:00;;;;;;;6.43;4.13;;;;;;;;;;5072819;28;20433;-76
2023/10/14 01:58:30;;;;;;;6.93;3.40;;;;;;;;;;5071644;28;20930;-76
2023/10/14 02:01:04;;;;;;;8.02;4.07;;;;;;;;;;5072123;28;20190;-77
2023/10/14 02:03:41;;;;;;;6.33;2.87;;;;;;;;;;5071925;28;20273;-76
2023/10/14 02:06:16;;;;;;;5.97;3.78;;;;;;;;;;5077335;28;20489;-76
2023/10/14 02:08:45;;;;;;;7.43;4.73;;;;;;;;;;5076896;28;20209;-76
2023/10/14 02:11:16;;;;;;;6.70;4.00;;;;;;;;;;5076800;28;20436;-76
2023/10/14 02:13:45;;;;;;;7.60;3.85;;;;;;;;;;5077093;28;20850;-76
2023/10/14 02:16:13;;;;;;;8.27;2.97;;;;;;;;;;5075822;28;20186;-76
2023/10/14 02:18:40;;;;;;;12.57;3.77;;;;;;;;;;5077072;28;20523;-76
2023/10/14 02:21:16;;;;;;;4.20;2.75;;;;;;;;;;5075586;28;20502;-76
2023/10/14 02:23:45;;;;;;;8.23;4.20;;;;;;;;;;5076203;28;20268;-76
2023/10/14 02:26:24;;;;;;;6.43;3.03;;;;;;;;;;5075002;28;20432;-77
2023/10/14 02:28:53;;;;;;;7.93;3.53;;;;;;;;;;5075207;28;20478;-76
2023/10/14 02:31:35;;;;;;;9.13;3.90;;;;;;;;;;5075065;28;20447;-76
2023/10/14 02:34:05;;;;;;;5.63;3.60;;;;;;;;;;5076378;28;20455;-76
2023/10/14 02:36:35;;;;;;;5.30;2.80;;;;;;;;;;5075379;28;20451;-76
2023/10/14 02:39:14;;;;;;;8.60;3.60;;;;;;;;;;5075960;28;20517;-76
2023/10/14 02:41:44;;;;;;;6.10;3.03;;;;;;;;;;5076556;28;20425;-76
2023/10/14 02:44:28;;;;;;;10.80;3.28;;;;;;;;;;5076519;28;20436;-76
2023/10/14 02:47:01;;;;;;;3.63;2.40;;;;;;;;;;5075773;28;20629;-76
2023/10/14 02:49:34;;;;;;;6.30;3.00;;;;;;;;;;5076443;28;20456;-76
2023/10/14 02:52:08;;;;;;;5.33;3.00;;;;;;;;;;5075937;28;20420;-76
2023/10/14 02:54:39;;;;;;;6.37;4.67;;;;;;;;;;5076083;28;20692;-76
2023/10/14 02:57:14;;;;;;;5.33;2.97;;;;;;;;;;5076335;28;20771;-76
2023/10/14 02:59:44;;;;;;;6.53;3.10;;;;;;;;;;5075014;28;20530;-76
2023/10/14 03:02:16;;;;;;;4.47;3.00;;;;;;;;;;5076277;28;20478;-76
2023/10/14 03:04:55;;;;;;;10.60;4.90;;;;;;;;;;5076199;28;20429;-76
2023/10/14 03:07:28;;;;;;;7.27;3.13;;;;;;;;;;5076140;28;20178;-76
2023/10/14 03:09:58;;;;;;;4.93;3.03;;;;;;;;;;5075799;28;20421;-76
2023/10/14 03:12:25;;;;;;;7.13;2.63;;;;;;;;;;5076013;28;20417;-76
2023/10/14 03:14:55;;;;;;;9.50;3.70;;;;;;;;;;5075503;28;20464;-76
2023/10/14 03:17:40;;;;;;;9.23;2.97;;;;;;;;;;5075218;28;20482;-76
2023/10/14 03:20:34;;;;;;;5.32;3.20;;;;;;;;;;5075753;28;20924;-76
2023/10/14 03:22:56;;;;;;;6.70;3.40;;;;;;;;;;5075465;28;20644;-76
2023/10/14 03:25:27;;;;;;;7.77;3.43;;;;;;;;;;5075784;28;20511;-76
2023/10/14 03:27:59;;;;;;;6.50;3.10;;;;;;;;;;5074904;28;20432;-76
2023/10/14 03:30:27;;;;;;;5.10;3.10;;;;;;;;;;5075669;28;20437;-76
2023/10/14 03:32:57;;;;;;;9.37;3.70;;;;;;;;;;5075516;28;20466;-76
2023/10/14 03:35:28;;;;;;;8.50;4.23;;;;;;;;;;5075189;28;20480;-76
2023/10/14 03:38:08;;;;;;;9.00;3.70;;;;;;;;;;5075191;28;20420;-76
2023/10/14 03:40:51;;;;;;;6.50;4.27;;;;;;;;;;5075235;28;20511;-76
2023/10/14 03:43:19;;;;;;;5.07;2.70;;;;;;;;;;5074708;28;20421;-77
2023/10/14 03:45:48;;;;;;;7.95;3.30;;;;;;;;;;5074119;28;20441;-76
2023/10/14 03:48:16;;;;;;;5.60;3.03;;;;;;;;;;5074947;28;20222;-76
2023/10/14 03:50:46;;;;;;;6.50;3.93;;;;;;;;;;5075027;28;20458;-76
2023/10/14 03:53:14;;;;;;;4.67;2.60;;;;;;;;;;5075406;28;20423;-76
2023/10/14 03:55:43;;;;;;;5.43;2.83;;;;;;;;;;5074528;28;20467;-76
2023/10/14 03:58:12;;;;;;;5.83;2.73;;;;;;;;;;5074796;28;20433;-77
2023/10/14 04:00:39;;;;;;;6.23;3.27;;;;;;;;;;5075229;28;20489;-77
2023/10/14 04:03:12;;;;;;;6.63;3.53;;;;;;;;;;5074737;28;20926;-76
2023/10/14 04:05:52;;;;;;;4.77;2.60;;;;;;;;;;5074230;28;20922;-76
2023/10/14 04:08:25;;;;;;;11.00;2.70;;;;;;;;;;5074367;28;20421;-76
2023/10/14 04:11:03;;;;;;;6.57;3.50;;;;;;;;;;5074927;28;20478;-76
2023/10/14 04:13:34;;;;;;;5.80;3.10;;;;;;;;;;5074510;28;20432;-76
2023/10/14 04:16:02;;;;;;;6.40;3.30;;;;;;;;;;5074426;28;20946;-76
2023/10/14 04:18:31;;;;;;;6.53;3.93;;;;;;;;;;5075013;28;20428;-77
2023/10/14 04:21:13;;;;;;;10.63;4.43;;;;;;;;;;5074761;28;20839;-76
2023/10/14 04:23:51;;;;;;;9.07;3.53;;;;;;;;;;5073250;28;20524;-76
2023/10/14 04:26:22;;;;;;;8.63;3.97;;;;;;;;;;5074406;28;20421;-76
2023/10/14 04:28:54;;;;;;;7.20;4.17;;;;;;;;;;5073118;28;20934;-76
2023/10/14 04:31:38;;;;;;;5.77;3.93;;;;;;;;;;5074223;28;20929;-76
2023/10/14 04:34:06;;;;;;;9.63;3.90;;;;;;;;;;5074277;28;20517;-76
2023/10/14 04:36:53;;;;;;;7.10;4.73;;;;;;;;;;5074060;28;20437;-76
2023/10/14 04:39:26;;;;;;;7.57;3.67;;;;;;;;;;5073749;28;20436;-76
2023/10/14 04:42:22;;;;;;;9.73;3.33;;;;;;;;;;5074017;28;20421;-76
2023/10/14 04:44:59;;;;;;;5.63;3.17;;;;;;;;;;5074155;28;20516;-76
2023/10/14 04:47:36;;;;;;;7.00;3.93;;;;;;;;;;5073920;28;20483;-76
2023/10/14 04:50:10;;;;;;;9.10;3.80;;;;;;;;;;5073897;28;20431;-76
2023/10/14 04:52:38;;;;;;;5.70;3.53;;;;;;;;;;5073454;28;20428;-77
2023/10/14 04:55:20;;;;;;;7.20;4.23;;;;;;;;;;5073733;28;20517;-76
2023/10/14 04:58:06;;;;;;;6.70;3.60;;;;;;;;;;5074132;28;20899;-76
2023/10/14 05:00:38;;;;;;;7.47;4.20;;;;;;;;;;5073490;28;20452;-76
2023/10/14 05:03:06;;;;;;;5.73;3.30;;;;;;;;;;5073664;28;20417;-76
2023/10/14 05:05:38;;;;;;;8.30;4.00;;;;;;;;;;5073846;28;20501;-76
2023/10/14 05:08:44;;;;;;;7.40;3.77;;;;;;;;;;5073588;28;20504;-76
2023/10/14 05:11:18;;;;;;;5.70;3.60;;;;;;;;;;5070820;28;20531;-76
2023/10/14 05:13:53;;;;;;;7.50;4.57;;;;;;;;;;5073799;28;20449;-76
2023/10/14 05:16:21;;;;;;;7.13;4.00;;;;;;;;;;5073075;28;20757;-76
2023/10/14 05:19:00;;;;;;;4.93;3.40;;;;;;;;;;5073682;28;20440;-77
2023/10/14 05:21:43;;;;;;;6.77;4.30;;;;;;;;;;5073205;28;20463;-76
2023/10/14 05:24:11;;;;;;;7.13;4.20;;;;;;;;;;5073456;28;20416;-76
2023/10/14 05:26:46;;;;;;;8.67;4.40;;;;;;;;;;5073800;28;20494;-76
2023/10/14 05:29:22;;;;;;;7.17;4.10;;;;;;;;;;5073638;28;20450;-77
2023/10/14 05:31:50;;;;;;;6.70;4.70;;;;;;;;;;5073424;28;20776;-76
2023/10/14 05:34:21;;;;;;;8.60;4.27;;;;;;;;;;5072822;28;20989;-76
2023/10/14 05:36:52;;;;;;;5.80;4.50;;;;;;;;;;5073358;28;20504;-76
2023/10/14 05:39:20;;;;;;;9.03;4.20;;;;;;;;;;5071559;28;20439;-76
2023/10/14 05:41:48;;;;;;;7.80;4.83;;;;;;;;;;5073263;28;20511;-76
2023/10/14 05:44:18;;;;;;;6.73;4.43;;;;;;;;;;5073285;28;20444;-76
2023/10/14 05:46:47;;;;;;;8.10;4.73;;;;;;;;;;5073119;28;20433;-76
2023/10/14 05:49:24;;;;;;;10.57;4.80;;;;;;;;;;5073295;28;20460;-76
2023/10/14 05:51:53;;;;;;;8.47;4.50;;;;;;;;;;5072978;28;20899;-76
2023/10/14 05:54:22;;;;;;;8.20;5.13;;;;;;;;;;5073064;28;20479;-76
2023/10/14 05:57:04;;;;;;;6.77;4.60;;;;;;;;;;5072730;28;20938;-76
2023/10/14 05:59:33;;;;;;;7.33;4.77;;;;;;;;;;5073272;28;20429;-76
2023/10/14 06:02:07;;;;;;;5.80;3.93;;;;;;;;;;5072940;28;20437;-76
2023/10/14 06:04:39;;;;;;;8.50;4.93;;;;;;;;;;5072688;28;20930;-76
2023/10/14 06:07:07;;;;;;;7.80;4.37;;;;;;;;;;5071784;28;20809;-76
2023/10/14 06:09:34;;;;;;;6.10;4.20;;;;;;;;;;5072977;28;20823;-76
2023/10/14 06:12:06;;;;;;;9.70;5.27;;;;;;;;;;5072589;28;20490;-76
2023/10/14 06:14:40;;;;;;;5.80;3.83;;;;;;;;;;5072414;28;20974;-77
2023/10/14 06:17:08;;;;;;;6.17;3.53;;;;;;;;;;5071300;28;20455;-76
2023/10/14 06:19:38;;;;;;;5.30;3.67;;;;;;;;;;5072562;28;20433;-76
2023/10/14 06:22:07;;;;;;;7.33;4.30;;;;;;;;;;5072575;28;20454;-76
2023/10/14 06:24:35;;;;;;;6.27;4.07;;;;;;;;;;5072099;28;20440;-76
2023/10/14 06:27:08;;;;;;;9.47;5.00;;;;;;;;;;5072491;28;20968;-76
2023/10/14 06:29:37;;;;;;;10.53;5.07;;;;;;;;;;5072813;28;20919;-76
2023/10/14 06:32:07;;;;;;;7.90;4.47;;;;;;;;;;5071641;28;20498;-76
2023/10/14 06:34:39;;;;;;;12.20;4.57;;;;;;;;;;5071538;28;20474;-76
2023/10/14 06:37:07;;;;;;;5.93;4.17;;;;;;;;;;5072827;28;20425;-76
2023/10/14 06:39:39;;;;;;;11.20;4.60;;;;;;;;;;5072392;28;20469;-76
2023/10/14 06:42:07;;;;;;;5.40;4.43;;;;;;;;;;5072338;28;20433;-76
2023/10/14 06:44:37;;;;;;;14.47;4.43;;;;;;;;;;5072550;28;20531;-77
2023/10/14 06:47:06;;;;;;;11.57;5.00;;;;;;;;;;5072299;28;20436;-76
2023/10/14 06:49:36;;;;;;;7.27;4.60;;;;;;;;;;5071810;28;20433;-76
2023/10/14 06:52:04;;;;;;;9.70;4.33;;;;;;;;;;5074701;28;20478;-77
2023/10/14 06:54:36;;;;;;;5.97;4.53;;;;;;;;;;5070544;28;20862;-78
2023/10/14 06:57:07;;;;;;;6.13;4.30;;;;;;;;;;5076002;28;21733;-76
2023/10/14 06:59:35;;;;;;;9.17;4.60;;;;;;;;;;5070240;28;20432;-76
2023/10/14 07:02:03;;;;;;;9.20;4.27;;;;;;;;;;5074651;28;20441;-77
2023/10/14 07:04:37;;;;;;;8.03;5.87;;;;;;;;;;5075246;28;20432;-76
2023/10/14 07:07:08;;;;;;;8.60;4.10;;;;;;;;;;5075197;28;20420;-76
2023/10/14 07:09:37;;;;;;;6.30;4.77;;;;;;;;;;5074716;28;20435;-76
2023/10/14 07:12:13;;;;;;;6.53;4.30;;;;;;;;;;5074754;28;20482;-76
2023/10/14 07:14:40;;;;;;;7.40;3.93;;;;;;;;;;5080443;28;20464;-78
2023/10/14 07:17:07;;;;;;;7.87;4.83;;;;;;;;;;5088077;28;20487;-76
2023/10/14 07:19:36;;;;;;;9.20;4.40;;;;;;;;;;5075218;28;20523;-76
2023/10/14 07:22:07;;;;;;;9.13;4.90;;;;;;;;;;5074720;28;20915;-76
2023/10/14 07:24:36;;;;;;;10.90;5.70;;;;;;;;;;5075039;28;20466;-77
2023/10/14 07:27:04;;;;;;;10.93;5.20;;;;;;;;;;5074286;28;20441;-77
2023/10/14 07:29:31;;;;;;;7.97;5.90;;;;;;;;;;5074887;28;20443;-77
2023/10/14 07:31:58;;;;;;;9.97;5.10;;;;;;;;;;5073893;28;20787;-77
2023/10/14 07:34:26;;;;;;;11.10;5.50;;;;;;;;;;5073558;28;20548;-76
2023/10/14 07:36:54;;;;;;;9.87;5.27;;;;;;;;;;5074794;28;20448;-76
2023/10/14 07:39:28;;;;;;;6.80;5.77;;;;;;;;;;5074552;28;20522;-89
2023/10/14 07:41:55;;;;;;;7.87;5.23;;;;;;;;;;5075354;28;20448;-87
2023/10/14 07:44:24;;;;;;;7.57;4.83;;;;;;;;;;5071400;28;20437;-88
2023/10/14 07:46:51;;;;;;;8.30;5.00;;;;;;;;;;5073579;28;20455;-89
2023/10/14 07:49:18;;;;;;;7.70;4.53;;;;;;;;;;5074057;28;20424;-89
2023/10/14 07:51:49;;;;;;;6.80;5.10;;;;;;;;;;5074242;28;20429;-88
2023/10/14 07:54:18;;;;;;;7.00;5.10;;;;;;;;;;5073696;28;20433;-90
2023/10/14 07:56:46;;;;;;;5.57;4.80;;;;;;;;;;5073510;28;20468;-90
2023/10/14 07:59:14;;;;;;;11.83;5.50;;;;;;;;;;5071831;28;20449;-91
2023/10/14 08:01:45;;;;;;;6.53;4.60;;;;;;;;;;5053575;28;20973;-89
2023/10/14 08:04:14;;;;;;;7.13;4.73;;;;;;;;;;5052755;28;20434;-89
2023/10/14 08:06:41;;;;;;;7.57;4.80;;;;;;;;;;5050977;28;20434;-90
2023/10/14 08:09:24;;;;;;;7.40;5.43;;;;;;;;;;5051883;28;20449;-89
2023/10/14 08:11:53;;;;;;;7.73;5.50;;;;;;;;;;5048799;28;20512;-91
2023/10/14 08:14:20;;;;;;;8.40;4.97;;;;;;;;;;5044047;28;20846;-90
2023/10/14 08:16:48;;;;;;;7.60;4.80;;;;;;;;;;5053068;28;20535;-88
2023/10/14 08:19:21;;;;;;;6.70;5.57;;;;;;;;;;5050917;28;20802;-90
2023/10/14 08:21:50;;;;;;;7.80;5.40;;;;;;;;;;5053225;28;20445;-90
2023/10/14 08:24:18;;;;;;;6.63;4.30;;;;;;;;;;5054009;28;20834;-90
2023/10/14 08:26:46;;;;;;;9.13;6.10;;;;;;;;;;5052536;28;20528;-91
2023/10/14 08:29:18;;;;;;;6.87;4.70;;;;;;;;;;5053062;28;20488;-91
2023/10/14 08:31:51;;;;;;;5.50;4.20;;;;;;;;;;5053097;28;20456;-89
2023/10/14 08:34:18;;;;;;;8.87;4.60;;;;;;;;;;5049097;28;20897;-90
2023/10/14 08:36:46;;;;;;;7.70;4.60;;;;;;;;;;5053565;28;20469;-91
2023/10/14 08:39:15;;;;;;;4.90;3.37;;;;;;;;;;5054709;28;20845;-89
2023/10/14 08:41:50;;;;;;;6.00;3.93;;;;;;;;;;5056186;28;20433;-91
2023/10/14 08:44:23;;;;;;;7.73;4.50;;;;;;;;;;5042926;28;20432;-91
2023/10/14 08:46:51;;;;;;;5.50;3.53;;;;;;;;;;5052986;28;20421;-90
2023/10/14 08:49:25;;;;;;;5.80;3.60;;;;;;;;;;5053175;28;20437;-91
2023/10/14 08:51:53;;;;;;;5.03;3.10;;;;;;;;;;5053642;28;20433;-89
2023/10/14 08:54:23;;;;;;;5.37;3.10;;;;;;;;;;5052860;28;20437;-91
2023/10/14 08:56:51;;;;;;;5.93;3.20;;;;;;;;;;5053195;28;20837;-91
2023/10/14 08:59:20;;;;;;;5.93;2.83;;;;;;;;;;5052543;28;20472;-90
2023/10/14 09:01:56;;;;;;;7.20;3.33;;;;;;;;;;5053006;28;20429;-90
2023/10/14 09:04:28;;;;;;;6.10;3.50;;;;;;;;;;5053328;28;20817;-92
2023/10/14 09:07:00;;;;;;;11.53;3.20;;;;;;;;;;5052862;28;20809;-91
2023/10/14 09:09:28;;;;;;;6.33;2.67;;;;;;;;;;5049718;28;20434;-90
2023/10/14 09:11:56;;;;;;;6.63;3.20;;;;;;;;;;5051968;28;20433;-91
2023/10/14 09:14:24;;;;;;;7.70;2.90;;;;;;;;;;5051674;28;20445;-91
2023/10/14 09:16:54;;;;;;;10.20;3.47;;;;;;;;;;5052196;28;20480;-91
2023/10/14 09:19:23;;;;;;;8.47;3.33;;;;;;;;;;5032683;28;20439;-90
2023/10/14 09:21:57;;;;;;;4.57;3.00;;;;;;;;;;5051524;28;20772;-90
2023/10/14 09:24:30;;;;;;;6.53;3.80;;;;;;;;;;5051270;28;20503;-91
2023/10/14 09:27:03;;;;;;;5.83;3.20;;;;;;;;;;5052693;28;20432;-92
2023/10/14 09:29:36;;;;;;;7.00;3.33;;;;;;;;;;5045438;28;20452;-91
2023/10/14 09:32:05;;;;;;;5.03;3.03;;;;;;;;;;5051576;28;20453;-91
2023/10/14 09:34:34;;;;;;;5.50;3.67;;;;;;;;;;5051461;28;20442;-89
2023/10/14 09:37:10;;;;;;;7.33;3.47;;;;;;;;;;5052143;28;20479;-91
2023/10/14 09:39:41;;;;;;;8.40;3.47;;;;;;;;;;5052359;28;20422;-92
2023/10/14 09:42:11;;;;;;;10.33;3.53;;;;;;;;;;5051659;28;20840;-91
2023/10/14 09:44:42;;;;;;;8.47;3.20;;;;;;;;;;5052543;28;20492;-90
2023/10/14 09:47:13;;;;;;;8.00;3.40;;;;;;;;;;5050448;28;20481;-90
2023/10/14 09:49:43;;;;;;;5.20;2.97;;;;;;;;;;5052153;28;20422;-91
2023/10/14 09:52:14;;;;;;;4.47;3.40;;;;;;;;;;5051318;28;20425;-91
2023/10/14 09:54:43;;;;;;;5.37;2.97;;;;;;;;;;5051678;28;20445;-91
2023/10/14 09:57:12;;;;;;;10.40;3.90;;;;;;;;;;5052581;28;20495;-91
2023/10/14 09:59:42;;;;;;;93.10;11.67;;;;;;;;;;5051340;28;20438;-90
2023/10/14 10:02:09;;;;;;;7.30;3.40;;;;;;;;;;5052240;28;20859;-90
2023/10/14 10:04:39;;;;;;;6.57;3.10;;;;;;;;;;5049555;28;20441;-91
2023/10/14 10:07:15;;;;;;;5.90;3.33;;;;;;;;;;5051699;28;20429;-90
2023/10/14 10:10:01;;;;;;;7.00;3.57;;;;;;;;;;5050177;28;20998;-90
2023/10/14 10:12:31;;;;;;;5.90;3.60;;;;;;;;;;5052089;28;20467;-90
2023/10/14 10:15:02;;;;;;;5.80;3.30;;;;;;;;;;5051824;28;20798;-90
2023/10/14 10:17:30;;;;;;;9.70;3.40;;;;;;;;;;5051292;28;20476;-90
2023/10/14 10:20:08;;;;;;;12.23;3.57;;;;;;;;;;5049733;28;20764;-90
2023/10/14 10:22:43;;;;;;;3.80;2.67;;;;;;;;;;5052000;28;20442;-90
2023/10/14 10:25:16;;;;;;;3.60;2.70;;;;;;;;;;5052705;28;20441;-90
2023/10/14 10:27:44;;;;;;;6.03;3.20;;;;;;;;;;5056055;28;20472;-91
2023/10/14 10:30:14;;;;;;;4.27;2.80;;;;;;;;;;5055602;28;20433;-90
2023/10/14 10:32:46;;;;;;;6.60;2.80;;;;;;;;;;5055087;28;20503;-90
2023/10/14 10:35:18;;;;;;;8.03;5.37;;;;;;;;;;5055554;28;20524;-91
2023/10/14 10:37:51;;;;;;;4.27;2.60;;;;;;;;;;5055344;28;21192;-90
2023/10/14 10:40:27;;;;;;;4.30;2.67;;;;;;;;;;5057690;28;20433;-89
2023/10/14 10:43:07;;;;;;;6.50;3.00;;;;;;;;;;5056121;28;20436;-90
2023/10/14 10:45:36;;;;;;;4.47;2.60;;;;;;;;;;5055687;28;20479;-90
2023/10/14 10:48:05;;;;;;;6.23;3.10;;;;;;;;;;5055064;28;20456;-90
2023/10/14 10:50:35;;;;;;;4.60;2.53;;;;;;;;;;5055190;28;21006;-90
2023/10/14 10:53:17;;;;;;;5.57;2.90;;;;;;;;;;5055387;28;20520;-91
2023/10/14 10:55:46;;;;;;;6.73;3.93;;;;;;;;;;5054037;28;20491;-90
2023/10/14 10:58:14;;;;;;;8.23;2.33;;;;;;;;;;5055177;28;20467;-89
2023/10/14 11:00:46;;;;;;;4.27;2.00;;;;;;;;;;5055134;28;20433;-90
2023/10/14 11:03:15;;;;;;;4.60;1.80;;;;;;;;;;5055039;28;20513;-91
2023/10/14 11:05:42;;;;;;;3.60;2.47;;;;;;;;;;5055165;28;20453;-89
2023/10/14 11:08:10;;;;;;;6.37;2.43;;;;;;;;;;5055386;28;20503;-91
2023/10/14 11:10:38;;;;;;;5.17;3.60;;;;;;;;;;5055004;28;20477;-90
2023/10/14 11:13:06;;;;;;;6.60;2.70;;;;;;;;;;5055011;28;20437;-91
2023/10/14 11:15:34;;;;;;;5.27;1.97;;;;;;;;;;5054522;28;20444;-90
2023/10/14 11:18:03;;;;;;;5.80;2.00;;;;;;;;;;5055821;28;20438;-90
2023/10/14 11:20:32;;;;;;;3.80;2.13;;;;;;;;;;5054504;28;20426;-89
2023/10/14 11:23:04;;;;;;;3.47;1.83;;;;;;;;;;5053974;28;20446;-90
2023/10/14 11:25:32;;;;;;;3.13;1.40;;;;;;;;;;5054104;28;20430;-88
2023/10/14 11:28:00;;;;;;;4.33;2.67;;;;;;;;;;5054760;28;20445;-92
2023/10/14 11:30:29;;;;;;;3.33;1.43;;;;;;;;;;5054847;28;20460;-92
2023/10/14 11:32:58;;;;;;;5.13;2.40;;;;;;;;;;5054595;28;20429;-91
2023/10/14 11:35:30;;;;;;;3.30;1.90;;;;;;;;;;5054920;28;20445;-91
2023/10/14 11:38:00;;;;;;;3.27;2.10;;;;;;;;;;5053955;28;20468;-91
2023/10/14 11:40:33;;;;;;;3.50;2.00;;;;;;;;;;5054533;28;20453;-91
2023/10/14 11:43:01;;;;;;;12.30;7.17;;;;;;;;;;5054927;28;20417;-91
2023/10/14 11:45:29;;;;;;;4.30;2.20;;;;;;;;;;5054250;28;20486;-91
2023/10/14 11:48:01;;;;;;;3.40;2.00;;;;;;;;;;5053860;28;20504;-89
2023/10/14 11:50:32;;;;;;;11.50;2.50;;;;;;;;;;5054609;28;20464;-91
2023/10/14 11:53:03;;;;;;;7.00;2.50;;;;;;;;;;5054087;28;20437;-91
2023/10/14 11:55:32;;;;;;;4.80;2.07;;;;;;;;;;5053977;28;20441;-89
2023/10/14 11:58:00;;;;;;;3.83;1.63;;;;;;;;;;5053927;28;20830;-89
2023/10/14 12:00:28;;;;;;;5.70;2.23;;;;;;;;;;5054356;28;20475;-90
2023/10/14 12:02:55;;;;;;;3.93;1.90;;;;;;;;;;5053743;28;20437;-89
2023/10/14 12:05:26;;;;;;;3.87;1.70;;;;;;;;;;5053262;28;20916;-90
2023/10/14 12:07:55;;;;;;;8.67;3.20;;;;;;;;;;5053724;28;20429;-91
2023/10/14 12:10:26;;;;;;;6.13;3.07;;;;;;;;;;5054093;28;20852;-89
2023/10/14 12:12:54;;;;;;;6.90;2.17;;;;;;;;;;5053118;28;20802;-91
2023/10/14 12:15:21;;;;;;;6.83;2.47;;;;;;;;;;5054002;28;20850;-91
2023/10/14 12:17:49;;;;;;;6.80;2.73;;;;;;;;;;5052703;28;20465;-90
2023/10/14 12:20:16;;;;;;;6.50;2.33;;;;;;;;;;5053148;28;20421;-89
2023/10/14 12:22:47;;;;;;;6.80;2.50;;;;;;;;;;5053082;28;20487;-90
2023/10/14 12:25:17;;;;;;;3.40;2.17;;;;;;;;;;5053309;28;20512;-89
2023/10/14 12:27:45;;;;;;;10.13;2.37;;;;;;;;;;5053717;28;20472;-89
2023/10/14 12:30:28;;;;;;;4.20;1.60;;;;;;;;;;5053906;28;20433;-91
2023/10/14 12:32:56;;;;;;;5.00;2.50;;;;;;;;;;5033426;28;20426;-89
2023/10/14 12:35:28;;;;;;;5.50;2.73;;;;;;;;;;5033587;28;20436;-89
2023/10/14 12:37:55;;;;;;;7.20;2.70;;;;;;;;;;5033504;28;20815;-90
2023/10/14 12:43:33;;;;;;;4.53;1.97;;;;;;;;;;5032712;28;20404;-89
2023/10/14 12:46:09;;;;;;;4.67;1.77;;;;;;;;;;5033774;28;20435;-91
2023/10/14 12:48:39;;;;;;;5.47;2.50;;;;;;;;;;5047149;28;20477;-90
2023/10/14 12:51:07;;;;;;;3.50;1.50;;;;;;;;;;5054087;28;20436;-91
2023/10/14 12:53:34;;;;;;;4.50;2.00;;;;;;;;;;5053708;28;20432;-90
2023/10/14 12:56:03;;;;;;;6.70;2.10;;;;;;;;;;5053757;28;20480;-91
2023/10/14 12:58:32;;;;;;;3.40;1.80;;;;;;;;;;5053821;28;20425;-91
2023/10/14 13:01:05;;;;;;;6.13;2.30;;;;;;;;;;5053920;28;20824;-89
2023/10/14 13:03:35;;;;;;;6.03;2.10;;;;;;;;;;5053793;28;20512;-91
2023/10/14 13:06:05;;;;;;;8.20;2.00;;;;;;;;;;5054274;28;20460;-91
2023/10/14 13:08:33;;;;;;;3.50;2.07;;;;;;;;;;5053623;28;20841;-91
2023/10/14 13:11:00;;;;;;;5.27;2.10;;;;;;;;;;5053797;28;20442;-91
2023/10/14 13:13:27;;;;;;;5.60;2.20;;;;;;;;;;5053784;28;20437;-91
2023/10/14 13:15:56;;;;;;;3.47;1.80;;;;;;;;;;5053354;28;20437;-91
2023/10/14 13:18:25;;;;;;;3.97;1.47;;;;;;;;;;5053637;28;20556;-90
2023/10/14 13:20:52;;;;;;;4.83;1.97;;;;;;;;;;5053634;28;20432;-90
2023/10/14 13:23:19;;;;;;;7.33;1.90;;;;;;;;;;5053516;28;20882;-91
2023/10/14 13:25:47;;;;;;;4.20;1.60;;;;;;;;;;5054608;28;20433;-91
2023/10/14 13:28:14;;;;;;;5.10;1.70;;;;;;;;;;5053768;28;20441;-91
2023/10/14 13:30:45;;;;;;;6.53;1.80;;;;;;;;;;5054573;28;20440;-90
2023/10/14 13:33:16;;;;;;;6.03;2.30;;;;;;;;;;5053802;28;20440;-91
2023/10/14 13:35:45;;;;;;;4.23;2.00;;;;;;;;;;5056051;28;20483;-91
2023/10/14 13:38:12;;;;;;;4.90;1.93;;;;;;;;;;5053207;28;20477;-91
2023/10/14 13:40:39;;;;;;;3.97;2.37;;;;;;;;;;5053474;28;20433;-90
2023/10/14 13:43:08;;;;;;;6.43;3.03;;;;;;;;;;5053577;28;20440;-91
2023/10/14 13:45:40;;;;;;;3.27;2.33;;;;;;;;;;5053247;28;20524;-89
2023/10/14 13:48:08;;;;;;;5.63;2.17;;;;;;;;;;5053222;28;20813;-91
2023/10/14 13:50:38;;;;;;;3.93;2.07;;;;;;;;;;5053172;28;20836;-91
2023/10/14 13:53:09;;;;;;;5.23;1.73;;;;;;;;;;5053250;28;20457;-89
2023/10/14 13:55:38;;;;;;;4.40;2.27;;;;;;;;;;5053437;28;20495;-91
2023/10/14 13:58:11;;;;;;;3.53;1.93;;;;;;;;;;5053141;28;20469;-90
2023/10/14 14:00:39;;;;;;;6.30;2.30;;;;;;;;;;5052857;28;20432;-91
2023/10/14 14:03:07;;;;;;;7.00;2.17;;;;;;;;;;5052701;28;20946;-91
2023/10/14 14:05:34;;;;;;;5.33;2.10;;;;;;;;;;5053160;28;20433;-90
2023/10/14 14:08:07;;;;;;;4.00;2.10;;;;;;;;;;5052985;28;20475;-90
2023/10/14 14:10:34;;;;;;;6.07;2.13;;;;;;;;;;5053007;28;20778;-89
2023/10/14 14:13:02;;;;;;;5.57;3.00;;;;;;;;;;5052509;28;20938;-89
2023/10/14 14:15:31;;;;;;;4.80;2.40;;;;;;;;;;5052977;28;20492;-90
2023/10/14 14:17:58;;;;;;;4.80;2.13;;;;;;;;;;5052622;28;20513;-90
2023/10/14 14:20:26;;;;;;;4.37;2.20;;;;;;;;;;5053004;28;20484;-90
2023/10/14 14:22:55;;;;;;;5.23;2.23;;;;;;;;;;5052642;28;20438;-91
2023/10/14 14:25:24;;;;;;;6.80;2.13;;;;;;;;;;5052748;28;20524;-90
2023/10/14 14:27:53;;;;;;;5.43;2.33;;;;;;;;;;5052499;28;20473;-90
2023/10/14 14:30:20;;;;;;;4.73;2.33;;;;;;;;;;5052576;28;20440;-91
2023/10/14 14:32:47;;;;;;;4.83;2.13;;;;;;;;;;5052334;28;20433;-90
2023/10/14 14:35:15;;;;;;;6.77;2.60;;;;;;;;;;5052767;28;20527;-90
2023/10/14 14:37:43;;;;;;;5.50;2.60;;;;;;;;;;5052391;28;20518;-90
2023/10/14 14:40:16;;;;;;;4.83;2.10;;;;;;;;;;5052566;28;20449;-90
2023/10/14 14:42:45;;;;;;;4.10;1.93;;;;;;;;;;5052441;28;20430;-90
2023/10/14 14:45:15;;;;;;;3.70;2.20;;;;;;;;;;5052700;28;20460;-90
2023/10/14 14:47:43;;;;;;;8.00;2.30;;;;;;;;;;5052056;28;20523;-90
2023/10/14 14:50:13;;;;;;;7.80;2.20;;;;;;;;;;5052648;28;20521;-90
2023/10/14 14:52:41;;;;;;;6.50;2.67;;;;;;;;;;5052357;28;20425;-90
2023/10/14 14:55:09;;;;;;;4.60;2.40;;;;;;;;;;5052347;28;20469;-90
2023/10/14 14:57:38;;;;;;;4.83;2.43;;;;;;;;;;5052278;28;20470;-90
2023/10/14 15:00:14;;;;;;;6.33;2.40;;;;;;;;;;5052443;28;20430;-89
2023/10/14 15:02:42;;;;;;;4.57;2.40;;;;;;;;;;5052095;28;20429;-91
2023/10/14 15:05:09;;;;;;;4.47;2.27;;;;;;;;;;5052105;28;20536;-90
2023/10/14 15:07:37;;;;;;;8.27;3.47;;;;;;;;;;5052424;28;20445;-90
2023/10/14 15:10:05;;;;;;;5.67;2.73;;;;;;;;;;5052109;28;20433;-90